Time;durP1;ratioP1;P1;durP2;ratioP2;P2;SDS_P1;SDS_P2;PMS_P1;PMS_P2;Temp;Humidity;BMP_temperature;BMP_pressure;BME280_temperature;BME280_humidity;BME280_pressure;Samples;Min_cycle;Max_cycle;Signal;HPM_P1;HPM_P2
2023/03/22 00:00:55;;;;;;;6.73;5.40;;;13.00;98.40;;;;;;5043371;28;20479;-83
2023/03/22 00:03:22;;;;;;;6.33;5.40;;;13.00;98.60;;;;;;5042872;28;20452;-83
2023/03/22 00:05:56;;;;;;;8.43;6.20;;;13.00;98.50;;;;;;5043000;28;20479;-84
2023/03/22 00:08:23;;;;;;;5.90;5.27;;;13.00;98.70;;;;;;5035404;28;20870;-84
2023/03/22 00:10:50;;;;;;;8.50;6.10;;;13.00;98.70;;;;;;5037335;28;20517;-84
2023/03/22 00:13:16;;;;;;;6.07;5.47;;;12.90;98.90;;;;;;5053097;28;20505;-83
2023/03/22 00:15:47;;;;;;;8.93;6.00;;;13.00;99.00;;;;;;5047419;28;20480;-84
2023/03/22 00:18:15;;;;;;;8.53;5.70;;;13.10;99.00;;;;;;5048654;28;20453;-84
2023/03/22 00:21:11;;;;;;;7.40;6.37;;;12.90;99.00;;;;;;5045295;28;20472;-83
2023/03/22 00:23:38;;;;;;;5.80;5.30;;;12.70;99.50;;;;;;5042940;28;20490;-82
2023/03/22 00:26:05;;;;;;;7.27;6.47;;;12.70;99.90;;;;;;5043889;28;20452;-82
2023/03/22 00:28:32;;;;;;;6.73;6.07;;;13.00;99.80;;;;;;5043662;28;20456;-84
2023/03/22 00:31:00;;;;;;;7.57;6.77;;;13.10;99.30;;;;;;5041056;28;20545;-82
2023/03/22 00:33:29;;;;;;;7.60;5.90;;;13.10;99.20;;;;;;5041722;28;20694;-82
2023/03/22 00:36:07;;;;;;;8.60;5.70;;;13.20;99.10;;;;;;5058855;28;20481;-82
2023/03/22 00:38:37;;;;;;;8.83;6.87;;;13.20;99.10;;;;;;5045027;28;20453;-83
2023/03/22 00:41:21;;;;;;;7.43;6.43;;;13.20;99.00;;;;;;5045438;28;20486;-83
2023/03/22 00:43:49;;;;;;;10.23;6.87;;;13.20;99.00;;;;;;5031921;28;20880;-84
2023/03/22 00:46:18;;;;;;;8.30;7.20;;;13.20;99.00;;;;;;5038160;28;20460;-84
2023/03/22 00:48:45;;;;;;;7.90;6.17;;;13.10;99.00;;;;;;5043666;28;20454;-82
2023/03/22 00:51:13;;;;;;;9.33;6.63;;;13.10;99.20;;;;;;5046168;28;20459;-84
2023/03/22 00:53:40;;;;;;;7.50;6.30;;;13.10;99.30;;;;;;5043737;28;20440;-82
2023/03/22 00:56:12;;;;;;;7.20;6.50;;;13.10;99.40;;;;;;5044154;28;20487;-84
2023/03/22 00:58:39;;;;;;;8.13;7.00;;;13.20;99.10;;;;;;5041844;28;20663;-83
2023/03/22 01:01:06;;;;;;;6.80;6.20;;;13.20;99.10;;;;;;5040137;28;20460;-83
2023/03/22 01:03:33;;;;;;;6.37;5.70;;;13.10;99.10;;;;;;5042403;28;20456;-83
2023/03/22 01:06:00;;;;;;;8.77;7.00;;;13.10;99.30;;;;;;5041283;28;20460;-83
2023/03/22 01:08:31;;;;;;;7.30;6.50;;;13.00;99.40;;;;;;5042975;28;20455;-84
2023/03/22 01:10:59;;;;;;;7.83;6.43;;;13.10;99.50;;;;;;5046742;28;20479;-83
2023/03/22 01:13:26;;;;;;;8.00;6.93;;;13.10;99.30;;;;;;5043788;28;20460;-83
2023/03/22 01:15:53;;;;;;;7.33;6.50;;;13.10;99.30;;;;;;5046371;28;20480;-84
2023/03/22 01:18:20;;;;;;;9.30;6.40;;;13.00;99.40;;;;;;5043590;28;21015;-83
2023/03/22 01:20:46;;;;;;;9.53;6.90;;;13.00;99.60;;;;;;5044611;28;20518;-84
2023/03/22 01:23:13;;;;;;;7.53;6.27;;;13.10;99.60;;;;;;5049784;28;20536;-84
2023/03/22 01:25:40;;;;;;;8.60;6.37;;;13.00;99.50;;;;;;5046813;28;20530;-83
2023/03/22 01:28:07;;;;;;;6.90;5.90;;;13.20;99.50;;;;;;5046134;28;20460;-82
2023/03/22 01:30:34;;;;;;;7.10;6.40;;;13.10;99.50;;;;;;5050762;28;20470;-84
2023/03/22 01:33:04;;;;;;;9.07;6.67;;;13.10;99.50;;;;;;5056581;28;20455;-84
2023/03/22 01:35:32;;;;;;;7.57;6.33;;;13.10;99.50;;;;;;5045916;28;21009;-82
2023/03/22 01:37:58;;;;;;;7.20;6.50;;;13.20;99.50;;;;;;5047310;28;20490;-83
2023/03/22 01:40:26;;;;;;;7.30;6.17;;;13.20;99.50;;;;;;5046575;28;21182;-83
2023/03/22 01:42:54;;;;;;;7.87;7.07;;;13.00;99.60;;;;;;5049127;28;20456;-84
2023/03/22 01:45:38;;;;;;;7.60;6.57;;;13.10;99.70;;;;;;5046712;28;20456;-84
2023/03/22 01:48:26;;;;;;;10.30;6.73;;;13.00;99.60;;;;;;5046692;28;20452;-85
2023/03/22 01:50:58;;;;;;;9.00;7.07;;;13.10;99.70;;;;;;5046596;28;20475;-84
2023/03/22 01:53:26;;;;;;;8.90;7.17;;;13.00;99.60;;;;;;5043368;28;20544;-83
2023/03/22 01:55:56;;;;;;;7.20;6.30;;;13.00;99.80;;;;;;5046308;28;20592;-84
2023/03/22 01:58:23;;;;;;;9.10;6.80;;;13.00;99.70;;;;;;5054837;28;20505;-84
2023/03/22 02:00:51;;;;;;;7.10;6.17;;;12.90;99.90;;;;;;5052386;28;20506;-84
2023/03/22 02:03:57;;;;;;;7.00;6.17;;;12.90;99.90;;;;;;5054340;28;20855;-84
2023/03/22 02:06:25;;;;;;;6.77;6.03;;;12.80;99.90;;;;;;4993914;28;20441;-82
2023/03/22 02:08:56;;;;;;;9.03;6.97;;;12.80;99.90;;;;;;5062496;28;20427;-80
2023/03/22 02:11:42;;;;;;;6.60;6.00;;;12.70;99.90;;;;;;5071428;28;20534;-84
2023/03/22 02:14:24;;;;;;;8.57;6.80;;;12.70;99.90;;;;;;5072381;28;20519;-81
2023/03/22 02:17:00;;;;;;;7.43;6.37;;;12.80;99.90;;;;;;5072373;28;20515;-82
2023/03/22 02:19:45;;;;;;;10.00;7.40;;;12.70;99.90;;;;;;5054575;28;20449;-81
2023/03/22 02:22:38;;;;;;;7.77;6.43;;;12.80;99.90;;;;;;5067221;28;20468;-83
2023/03/22 02:25:38;;;;;;;9.07;6.53;;;12.80;99.90;;;;;;5072374;28;20511;-83
2023/03/22 02:28:26;;;;;;;7.90;7.10;;;12.70;99.90;;;;;;5075228;28;20469;-84
2023/03/22 02:31:26;;;;;;;9.67;6.60;;;12.80;99.90;;;;;;5073739;28;20460;-83
2023/03/22 02:34:31;;;;;;;8.70;6.53;;;12.70;99.90;;;;;;5073825;28;20456;-82
2023/03/22 02:37:06;;;;;;;7.30;6.00;;;12.80;99.90;;;;;;5072490;28;20476;-83
2023/03/22 02:39:41;;;;;;;8.57;6.93;;;12.70;99.90;;;;;;5047778;28;20487;-84
2023/03/22 02:42:22;;;;;;;7.60;6.63;;;12.70;99.90;;;;;;5071791;28;20459;-84
2023/03/22 02:45:06;;;;;;;7.17;6.47;;;12.60;99.90;;;;;;5068453;28;20452;-83
2023/03/22 02:47:48;;;;;;;10.97;6.67;;;12.80;99.90;;;;;;5066002;28;20457;-83
2023/03/22 02:50:41;;;;;;;8.03;6.20;;;12.70;99.90;;;;;;5071044;28;20464;-83
2023/03/22 02:53:23;;;;;;;7.37;5.67;;;12.70;99.90;;;;;;5075747;28;20428;-83
2023/03/22 02:56:04;;;;;;;5.90;5.40;;;12.70;99.90;;;;;;5075978;28;20479;-81
2023/03/22 02:58:45;;;;;;;8.10;5.90;;;12.70;99.90;;;;;;5077379;28;20424;-82
2023/03/22 03:01:19;;;;;;;7.50;6.03;;;12.60;99.90;;;;;;5066323;28;20958;-85
2023/03/22 03:03:48;;;;;;;7.90;5.30;;;12.60;99.90;;;;;;5055514;28;20453;-84
2023/03/22 03:06:21;;;;;;;6.67;5.43;;;12.60;99.90;;;;;;5055822;28;20566;-84
2023/03/22 03:08:52;;;;;;;7.40;5.77;;;12.40;99.90;;;;;;5057219;28;20525;-84
2023/03/22 03:11:20;;;;;;;6.80;6.10;;;12.40;99.90;;;;;;5064135;28;20494;-84
2023/03/22 03:13:48;;;;;;;6.43;5.80;;;12.50;99.90;;;;;;5073463;28;20444;-82
2023/03/22 03:16:19;;;;;;;6.90;6.20;;;12.50;99.90;;;;;;5073006;28;20518;-82
2023/03/22 03:18:56;;;;;;;7.37;5.40;;;12.60;99.90;;;;;;5074198;28;20459;-83
2023/03/22 03:21:51;;;;;;;6.57;5.67;;;12.60;99.90;;;;;;5075924;28;20487;-83
2023/03/22 03:24:24;;;;;;;8.63;6.07;;;12.50;99.90;;;;;;5072114;28;20448;-83
2023/03/22 03:27:00;;;;;;;9.00;5.93;;;12.50;99.90;;;;;;5074662;28;20459;-82
2023/03/22 03:29:40;;;;;;;6.47;5.87;;;12.50;99.90;;;;;;5074508;28;20773;-83
2023/03/22 03:32:30;;;;;;;9.50;5.83;;;12.30;99.90;;;;;;5064775;28;20475;-83
2023/03/22 03:35:04;;;;;;;6.43;5.30;;;12.30;99.90;;;;;;5065935;28;20444;-81
2023/03/22 03:37:42;;;;;;;7.10;5.80;;;12.40;99.90;;;;;;5076183;28;20451;-82
2023/03/22 03:40:13;;;;;;;7.17;6.47;;;12.50;99.90;;;;;;5076529;28;20517;-81
2023/03/22 03:42:46;;;;;;;8.23;6.03;;;12.50;99.90;;;;;;5072782;28;20444;-84
2023/03/22 03:45:15;;;;;;;6.60;5.33;;;12.40;99.90;;;;;;5063872;28;20453;-83
2023/03/22 03:47:44;;;;;;;8.10;5.63;;;12.40;99.90;;;;;;5061092;28;20445;-84
2023/03/22 03:50:14;;;;;;;8.37;6.67;;;12.30;99.90;;;;;;5064816;28;20479;-82
2023/03/22 03:52:42;;;;;;;7.27;5.90;;;12.30;99.90;;;;;;5056062;28;20447;-82
2023/03/22 03:55:09;;;;;;;7.03;6.33;;;12.40;99.90;;;;;;5051732;28;20478;-83
2023/03/22 03:57:35;;;;;;;8.20;6.10;;;12.30;99.90;;;;;;5049444;28;20467;-82
2023/03/22 04:00:04;;;;;;;5.93;5.20;;;12.30;99.90;;;;;;5041099;28;20472;-83
2023/03/22 04:02:31;;;;;;;6.70;6.00;;;12.30;99.90;;;;;;5045293;28;20455;-84
2023/03/22 04:04:57;;;;;;;8.43;6.23;;;12.20;99.90;;;;;;5044400;28;20451;-83
2023/03/22 04:07:24;;;;;;;6.13;5.43;;;12.20;99.90;;;;;;5057287;28;20448;-82
2023/03/22 04:09:51;;;;;;;10.07;6.73;;;12.20;99.90;;;;;;5052191;28;20507;-84
2023/03/22 04:12:18;;;;;;;7.20;5.93;;;12.20;99.90;;;;;;5038968;28;20513;-82
2023/03/22 04:14:45;;;;;;;6.70;6.00;;;12.10;99.90;;;;;;5037716;28;20469;-82
2023/03/22 04:17:11;;;;;;;6.53;5.80;;;12.10;99.90;;;;;;5038095;28;20484;-82
2023/03/22 04:19:43;;;;;;;7.50;6.70;;;12.10;99.90;;;;;;5056359;28;20500;-83
2023/03/22 04:22:13;;;;;;;8.70;5.97;;;12.10;99.90;;;;;;5042750;28;20460;-83
2023/03/22 04:24:41;;;;;;;6.63;5.73;;;12.10;99.90;;;;;;5039082;28;20498;-84
2023/03/22 04:27:08;;;;;;;8.13;6.10;;;12.10;99.90;;;;;;5040570;28;20498;-84
2023/03/22 04:29:36;;;;;;;7.40;5.77;;;12.10;99.90;;;;;;5033419;28;20472;-83
2023/03/22 04:32:02;;;;;;;7.40;5.87;;;12.10;99.90;;;;;;5053949;28;20469;-84
2023/03/22 04:34:30;;;;;;;9.27;6.37;;;12.10;99.90;;;;;;5040875;28;20454;-84
2023/03/22 04:36:57;;;;;;;8.57;6.00;;;12.10;99.90;;;;;;5041390;28;20485;-84
2023/03/22 04:39:23;;;;;;;6.67;6.07;;;12.10;99.90;;;;;;5042300;28;20873;-83
2023/03/22 04:41:50;;;;;;;8.93;6.23;;;12.10;99.90;;;;;;5041139;28;20567;-82
2023/03/22 04:44:16;;;;;;;8.73;6.50;;;12.10;99.90;;;;;;5043473;28;20494;-82
2023/03/22 04:46:43;;;;;;;8.43;5.70;;;12.00;99.90;;;;;;5042816;28;20452;-82
2023/03/22 04:49:10;;;;;;;12.80;7.10;;;12.00;99.90;;;;;;5038278;28;20456;-82
2023/03/22 04:51:37;;;;;;;7.63;5.80;;;12.10;99.90;;;;;;5025346;28;20472;-82
2023/03/22 04:54:04;;;;;;;7.30;6.50;;;12.20;99.90;;;;;;5044869;28;20452;-82
2023/03/22 04:56:30;;;;;;;7.03;5.57;;;12.20;99.90;;;;;;5042680;28;21164;-82
2023/03/22 04:58:57;;;;;;;8.70;5.50;;;12.10;99.90;;;;;;5041540;28;20445;-82
2023/03/22 05:01:24;;;;;;;7.80;6.20;;;12.10;99.90;;;;;;5041882;28;20472;-82
2023/03/22 05:03:50;;;;;;;7.87;6.13;;;12.20;99.90;;;;;;5038329;28;20502;-83
2023/03/22 05:06:17;;;;;;;17.73;8.70;;;12.30;99.90;;;;;;5044313;28;20447;-82
2023/03/22 05:08:44;;;;;;;8.00;6.23;;;12.10;99.90;;;;;;5042353;28;20463;-81
2023/03/22 05:11:15;;;;;;;10.63;7.73;;;12.20;99.90;;;;;;5042247;28;20929;-84
2023/03/22 05:13:42;;;;;;;7.93;5.97;;;12.10;99.90;;;;;;5043681;28;20453;-82
2023/03/22 05:16:09;;;;;;;7.00;6.13;;;12.10;99.90;;;;;;5051058;28;21215;-84
2023/03/22 05:18:41;;;;;;;9.90;6.93;;;12.10;99.90;;;;;;5051734;28;20565;-84
2023/03/22 05:21:14;;;;;;;8.90;7.70;;;12.00;99.90;;;;;;5046044;28;22347;-85
2023/03/22 05:23:42;;;;;;;11.80;6.53;;;12.00;99.90;;;;;;5047758;28;20467;-84
2023/03/22 05:26:10;;;;;;;7.90;7.03;;;11.90;99.90;;;;;;5046814;28;20451;-84
2023/03/22 05:28:37;;;;;;;8.87;6.70;;;11.90;99.90;;;;;;5046443;28;20457;-82
2023/03/22 05:31:04;;;;;;;8.37;6.27;;;11.90;99.90;;;;;;5053659;28;21024;-83
2023/03/22 05:33:33;;;;;;;8.50;6.30;;;11.90;99.90;;;;;;5059392;28;20421;-83
2023/03/22 05:36:00;;;;;;;9.00;6.63;;;11.90;99.90;;;;;;5070751;28;20543;-82
2023/03/22 05:38:27;;;;;;;6.83;5.83;;;11.90;99.90;;;;;;5072009;28;20465;-80
2023/03/22 05:40:54;;;;;;;11.20;6.97;;;12.00;99.90;;;;;;5068562;28;20452;-82
2023/03/22 05:43:21;;;;;;;7.00;6.30;;;11.90;99.90;;;;;;5072240;28;20435;-82
2023/03/22 05:45:48;;;;;;;7.13;5.97;;;12.00;99.90;;;;;;5069279;28;20452;-85
2023/03/22 05:48:18;;;;;;;8.43;6.77;;;12.00;99.90;;;;;;5069843;28;20499;-84
2023/03/22 05:50:45;;;;;;;6.63;5.93;;;12.10;99.90;;;;;;5071742;28;20589;-82
2023/03/22 05:53:13;;;;;;;10.50;6.77;;;12.10;99.90;;;;;;5067407;28;20440;-84
2023/03/22 05:55:41;;;;;;;8.30;6.97;;;12.10;99.90;;;;;;5068408;28;20448;-84
2023/03/22 05:58:09;;;;;;;6.70;5.50;;;12.20;99.90;;;;;;5058754;28;20479;-84
2023/03/22 06:00:37;;;;;;;7.80;6.33;;;12.30;99.90;;;;;;5055805;28;20557;-83
2023/03/22 06:03:04;;;;;;;7.40;6.00;;;12.30;99.90;;;;;;5038001;28;20571;-83
2023/03/22 06:05:32;;;;;;;8.83;6.47;;;12.30;99.90;;;;;;5039287;28;20984;-82
2023/03/22 06:07:59;;;;;;;8.30;6.10;;;12.30;99.90;;;;;;5042181;28;20448;-84
2023/03/22 06:10:26;;;;;;;7.60;5.70;;;12.30;99.90;;;;;;5039460;28;20571;-82
2023/03/22 06:12:54;;;;;;;10.00;4.90;;;12.30;99.90;;;;;;5038661;28;20460;-82
2023/03/22 06:15:20;;;;;;;8.40;6.10;;;12.30;99.90;;;;;;5037608;28;20456;-84
2023/03/22 06:17:47;;;;;;;6.27;5.47;;;12.30;99.90;;;;;;5040096;28;20647;-83
2023/03/22 06:20:14;;;;;;;7.53;5.40;;;12.30;99.90;;;;;;5035335;28;20480;-84
2023/03/22 06:22:44;;;;;;;5.73;5.13;;;12.30;99.90;;;;;;5045487;28;20467;-83
2023/03/22 06:25:19;;;;;;;9.43;5.47;;;12.40;99.90;;;;;;5049652;28;20501;-82
2023/03/22 06:27:47;;;;;;;7.43;5.50;;;12.40;99.90;;;;;;5039888;28;20487;-83
2023/03/22 06:30:14;;;;;;;5.53;5.03;;;12.40;99.90;;;;;;5038678;28;20477;-84
2023/03/22 06:32:40;;;;;;;6.53;5.20;;;12.50;99.90;;;;;;5043231;28;20759;-83
2023/03/22 06:35:07;;;;;;;8.33;5.40;;;12.60;99.90;;;;;;5039537;28;23786;-83
2023/03/22 06:37:34;;;;;;;8.10;5.97;;;12.60;99.90;;;;;;5040805;28;20491;-83
2023/03/22 06:40:01;;;;;;;6.63;5.90;;;12.60;99.90;;;;;;5042542;28;20476;-83
2023/03/22 06:42:29;;;;;;;5.93;5.37;;;12.60;99.90;;;;;;5042588;28;20449;-82
2023/03/22 06:44:56;;;;;;;7.00;5.13;;;12.60;99.90;;;;;;5042862;28;20467;-84
2023/03/22 06:47:23;;;;;;;6.50;4.90;;;12.50;99.90;;;;;;5045373;28;20562;-83
2023/03/22 06:49:50;;;;;;;7.63;5.50;;;12.50;99.90;;;;;;5050141;28;20479;-83
2023/03/22 06:52:17;;;;;;;7.70;6.20;;;12.40;99.90;;;;;;5047312;28;20480;-82
2023/03/22 06:54:44;;;;;;;9.20;5.83;;;12.60;99.90;;;;;;5049011;28;20460;-84
2023/03/22 06:57:11;;;;;;;6.60;4.77;;;12.70;99.90;;;;;;5049525;28;20482;-83
2023/03/22 06:59:38;;;;;;;9.33;5.27;;;12.50;99.90;;;;;;5049316;28;20967;-83
2023/03/22 07:02:05;;;;;;;10.43;5.83;;;12.80;99.90;;;;;;5047082;28;20463;-82
2023/03/22 07:04:32;;;;;;;6.13;5.50;;;13.00;99.90;;;;;;5050125;28;20468;-84
2023/03/22 07:06:59;;;;;;;9.07;5.80;;;13.10;99.90;;;;;;5047709;28;20468;-84
2023/03/22 07:09:26;;;;;;;9.30;5.27;;;13.30;99.90;;;;;;5047732;28;20459;-82
2023/03/22 07:11:53;;;;;;;6.13;5.00;;;13.30;99.90;;;;;;5049617;28;20457;-82
2023/03/22 07:14:20;;;;;;;7.20;5.50;;;13.20;99.90;;;;;;5047503;28;20456;-82
2023/03/22 07:16:47;;;;;;;7.87;5.77;;;13.00;99.90;;;;;;5048761;28;20561;-83
2023/03/22 07:19:13;;;;;;;6.50;5.37;;;13.00;99.90;;;;;;5041892;28;21037;-85
2023/03/22 07:21:40;;;;;;;6.10;5.13;;;13.00;99.90;;;;;;5046853;28;20444;-84
2023/03/22 07:24:08;;;;;;;7.70;5.07;;;12.90;99.90;;;;;;5047782;28;20457;-84
2023/03/22 07:26:37;;;;;;;9.90;5.50;;;12.90;99.90;;;;;;5047858;28;20447;-84
2023/03/22 07:29:04;;;;;;;5.57;5.00;;;13.00;99.90;;;;;;5047967;28;20790;-83
2023/03/22 07:31:34;;;;;;;6.83;5.17;;;13.40;99.90;;;;;;5044893;28;20554;-83
2023/03/22 07:34:02;;;;;;;5.63;4.77;;;14.30;99.90;;;;;;5045962;28;20478;-84
2023/03/22 07:36:29;;;;;;;6.90;3.90;;;14.70;98.00;;;;;;5047352;28;20625;-84
2023/03/22 07:38:56;;;;;;;7.40;4.43;;;14.40;97.50;;;;;;5047053;28;20459;-82
2023/03/22 07:41:24;;;;;;;6.53;4.20;;;14.20;98.50;;;;;;5046664;28;20515;-84
2023/03/22 07:43:50;;;;;;;7.70;3.63;;;14.40;98.80;;;;;;5048948;28;20452;-85
2023/03/22 07:46:25;;;;;;;7.00;4.30;;;15.20;97.50;;;;;;5049512;28;20562;-83
2023/03/22 07:48:52;;;;;;;8.27;3.87;;;15.90;95.50;;;;;;5056169;28;20502;-85
2023/03/22 07:51:19;;;;;;;4.87;3.00;;;16.00;94.60;;;;;;5058261;28;20626;-83
2023/03/22 07:53:47;;;;;;;4.67;3.40;;;16.30;93.60;;;;;;5060263;28;21422;-83
2023/03/22 07:56:13;;;;;;;4.03;2.63;;;16.20;93.40;;;;;;5063508;28;20455;-84
2023/03/22 07:58:40;;;;;;;3.37;2.63;;;15.80;93.20;;;;;;5062105;28;20448;-83
2023/03/22 08:01:10;;;;;;;6.03;3.30;;;15.60;93.40;;;;;;5060488;28;20451;-85
2023/03/22 08:03:38;;;;;;;3.93;2.70;;;15.40;93.60;;;;;;5072967;28;20455;-83
2023/03/22 08:06:07;;;;;;;5.60;2.83;;;15.00;94.10;;;;;;5073672;28;20478;-83
2023/03/22 08:08:35;;;;;;;4.30;3.03;;;14.90;94.50;;;;;;5069936;28;20531;-82
2023/03/22 08:11:06;;;;;;;3.10;2.10;;;14.90;94.40;;;;;;5073584;28;20509;-83
2023/03/22 08:13:37;;;;;;;2.93;2.20;;;14.90;94.30;;;;;;5080071;28;20471;-84
2023/03/22 08:16:05;;;;;;;3.90;2.30;;;14.90;94.10;;;;;;5059421;28;20463;-83
2023/03/22 08:18:45;;;;;;;3.50;2.40;;;15.10;93.90;;;;;;5053268;28;20475;-84
2023/03/22 08:21:28;;;;;;;6.67;2.00;;;15.40;93.70;;;;;;5060855;28;20459;-83
2023/03/22 08:24:20;;;;;;;2.13;1.67;;;15.60;92.80;;;;;;5064547;28;20447;-83
2023/03/22 08:27:09;;;;;;;2.67;1.80;;;15.70;92.10;;;;;;5066176;28;20468;-83
2023/03/22 08:30:18;;;;;;;1.60;1.20;;;15.70;91.70;;;;;;5042621;28;20889;-83
2023/03/22 08:32:44;;;;;;;4.80;1.23;;;15.80;91.00;;;;;;5026998;28;20444;-81
2023/03/22 08:35:11;;;;;;;5.30;1.50;;;15.80;90.50;;;;;;5041089;28;20854;-82
2023/03/22 08:37:38;;;;;;;2.77;1.33;;;15.90;89.50;;;;;;5036813;28;20494;-84
2023/03/22 08:40:08;;;;;;;2.40;1.10;;;15.90;88.70;;;;;;5036779;28;21813;-84
2023/03/22 08:42:35;;;;;;;1.57;1.10;;;15.40;88.50;;;;;;5038975;28;20448;-84
2023/03/22 08:45:03;;;;;;;5.07;1.80;;;15.30;89.20;;;;;;5036956;28;20455;-83
2023/03/22 08:47:30;;;;;;;4.00;1.53;;;15.70;88.70;;;;;;5042659;28;20512;-83
2023/03/22 08:49:56;;;;;;;1.93;1.40;;;15.80;88.20;;;;;;5041634;28;20479;-83
2023/03/22 08:52:23;;;;;;;1.33;1.03;;;15.70;88.00;;;;;;5038455;28;20488;-84
2023/03/22 08:54:52;;;;;;;2.83;1.60;;;15.90;86.90;;;;;;5053480;28;20448;-83
2023/03/22 08:57:20;;;;;;;3.87;1.70;;;15.80;86.70;;;;;;5058466;28;20474;-84
2023/03/22 08:59:47;;;;;;;2.00;0.93;;;16.00;87.00;;;;;;5058461;28;20594;-83
2023/03/22 09:02:14;;;;;;;1.77;1.33;;;16.00;85.50;;;;;;5037092;28;20460;-83
2023/03/22 09:04:41;;;;;;;4.30;1.50;;;15.70;86.30;;;;;;5058114;28;20455;-85
2023/03/22 09:07:08;;;;;;;3.20;1.40;;;16.00;86.10;;;;;;5066385;28;20448;-84
2023/03/22 09:09:35;;;;;;;2.57;1.07;;;16.20;85.20;;;;;;5067961;28;20466;-84
2023/03/22 09:12:01;;;;;;;2.20;1.30;;;16.20;85.30;;;;;;5060651;28;20448;-83
2023/03/22 09:14:28;;;;;;;2.53;1.30;;;15.90;83.80;;;;;;5057866;28;20530;-84
2023/03/22 09:16:55;;;;;;;3.53;1.40;;;15.50;85.40;;;;;;5044817;28;20480;-83
2023/03/22 09:19:22;;;;;;;5.50;1.50;;;15.30;86.00;;;;;;5041935;28;20452;-83
2023/03/22 09:21:48;;;;;;;2.70;1.07;;;15.00;86.00;;;;;;5039667;28;20452;-84
2023/03/22 09:24:15;;;;;;;1.93;1.67;;;15.30;85.80;;;;;;5039929;28;20457;-83
2023/03/22 09:26:42;;;;;;;4.40;1.23;;;15.30;85.30;;;;;;5036890;28;20482;-83
2023/03/22 09:29:09;;;;;;;1.83;1.10;;;15.30;85.10;;;;;;5037122;28;20451;-82
2023/03/22 09:31:39;;;;;;;2.70;1.37;;;15.80;84.40;;;;;;5035083;28;20483;-83
2023/03/22 09:34:06;;;;;;;1.27;1.20;;;16.00;81.40;;;;;;5038229;28;20854;-83
2023/03/22 09:36:33;;;;;;;2.93;1.23;;;15.80;81.90;;;;;;5036854;28;20459;-83
2023/03/22 09:39:06;;;;;;;5.40;2.27;;;15.50;83.10;;;;;;5035426;28;20725;-84
2023/03/22 09:41:40;;;;;;;1.50;1.40;;;15.50;83.90;;;;;;5042181;28;20665;-85
2023/03/22 09:44:14;;;;;;;1.50;1.10;;;15.60;83.50;;;;;;5041655;28;20507;-84
2023/03/22 09:46:46;;;;;;;1.33;1.00;;;15.70;83.50;;;;;;5047970;28;20855;-83
2023/03/22 09:49:21;;;;;;;1.90;0.97;;;16.00;83.50;;;;;;5056227;28;20460;-83
2023/03/22 09:51:51;;;;;;;1.30;1.00;;;16.60;79.60;;;;;;5040010;28;20436;-83
2023/03/22 09:54:32;;;;;;;3.17;1.00;;;16.60;78.70;;;;;;5041234;28;20448;-83
2023/03/22 09:57:20;;;;;;;1.37;0.90;;;16.60;78.00;;;;;;5040181;28;20468;-83
2023/03/22 10:00:23;;;;;;;3.10;1.13;;;17.00;76.90;;;;;;5042587;28;20549;-83
2023/03/22 10:03:15;;;;;;;1.40;1.00;;;17.50;75.20;;;;;;5042857;28;20483;-85
2023/03/22 10:05:57;;;;;;;6.63;1.33;;;17.10;75.40;;;;;;5043842;28;20532;-83
2023/03/22 10:08:42;;;;;;;3.20;1.50;;;17.30;74.80;;;;;;5041979;28;20443;-83
2023/03/22 10:11:40;;;;;;;1.00;1.00;;;17.30;73.10;;;;;;5040466;28;20484;-82
2023/03/22 10:14:12;;;;;;;1.40;1.10;;;16.90;74.10;;;;;;5037149;28;20462;-84
2023/03/22 10:16:39;;;;;;;2.77;1.20;;;16.80;75.40;;;;;;5038587;28;20486;-83
2023/03/22 10:19:17;;;;;;;3.03;1.73;;;16.70;75.30;;;;;;5040520;28;20457;-83
2023/03/22 10:21:48;;;;;;;1.17;1.03;;;16.60;75.70;;;;;;5049917;28;20447;-85
2023/03/22 10:24:34;;;;;;;1.27;0.97;;;16.80;75.70;;;;;;5039650;28;20797;-84
2023/03/22 10:27:01;;;;;;;0.83;0.80;;;17.10;74.40;;;;;;5041171;28;20444;-83
2023/03/22 10:29:30;;;;;;;1.43;0.90;;;18.00;73.00;;;;;;5042591;28;21235;-85
2023/03/22 10:32:12;;;;;;;2.50;1.10;;;18.60;69.40;;;;;;5045525;28;20546;-82
2023/03/22 10:34:39;;;;;;;2.70;1.20;;;18.40;67.20;;;;;;5046995;28;20461;-83
2023/03/22 10:37:12;;;;;;;3.07;1.07;;;17.50;69.10;;;;;;5048634;28;21404;-84
2023/03/22 10:39:43;;;;;;;3.53;1.10;;;17.60;70.90;;;;;;5044745;28;20480;-82
2023/03/22 10:42:18;;;;;;;2.33;1.53;;;17.60;70.90;;;;;;5047581;28;20440;-82
2023/03/22 10:44:47;;;;;;;3.90;1.00;;;17.50;70.00;;;;;;5041876;28;20501;-83
2023/03/22 10:47:17;;;;;;;1.83;1.27;;;17.10;71.90;;;;;;5041813;28;20512;-84
2023/03/22 10:49:50;;;;;;;1.30;0.93;;;16.80;71.70;;;;;;5040611;28;20500;-83
2023/03/22 10:52:29;;;;;;;1.53;1.27;;;17.10;71.40;;;;;;5052762;28;20461;-83
2023/03/22 10:54:56;;;;;;;2.90;1.87;;;17.10;71.60;;;;;;5056368;28;20444;-83
2023/03/22 10:57:28;;;;;;;2.13;1.13;;;16.80;72.60;;;;;;5055047;28;20479;-84
2023/03/22 10:59:56;;;;;;;3.20;1.20;;;16.50;73.40;;;;;;5056733;28;20512;-84
2023/03/22 11:02:29;;;;;;;2.20;1.20;;;16.50;74.30;;;;;;5055896;28;20518;-82
2023/03/22 11:05:02;;;;;;;1.37;1.23;;;16.40;73.70;;;;;;5040349;28;20473;-83
2023/03/22 11:07:34;;;;;;;2.73;1.00;;;16.50;74.80;;;;;;5041279;28;20467;-83
2023/03/22 11:10:07;;;;;;;2.30;1.33;;;16.30;74.90;;;;;;5037308;28;20511;-83
2023/03/22 11:12:40;;;;;;;2.13;1.00;;;16.30;74.50;;;;;;5040733;28;20567;-83
2023/03/22 11:15:19;;;;;;;2.30;1.03;;;16.10;75.30;;;;;;5039518;28;20491;-83
2023/03/22 11:17:46;;;;;;;1.67;1.20;;;16.20;75.70;;;;;;5038587;28;21014;-84
2023/03/22 11:20:18;;;;;;;1.93;1.33;;;16.20;75.10;;;;;;5038370;28;20921;-84
2023/03/22 11:22:48;;;;;;;3.10;1.47;;;16.20;75.20;;;;;;5021728;28;20440;-83
2023/03/22 11:25:21;;;;;;;2.20;1.07;;;16.10;74.30;;;;;;5040395;28;20457;-82
2023/03/22 11:28:08;;;;;;;1.10;1.10;;;16.00;74.90;;;;;;5039730;28;20478;-83
2023/03/22 11:30:35;;;;;;;1.33;1.07;;;15.70;75.50;;;;;;5037716;28;21030;-84
2023/03/22 11:33:19;;;;;;;3.73;1.20;;;15.50;76.50;;;;;;5034807;28;20572;-82
2023/03/22 11:35:56;;;;;;;1.53;0.90;;;15.70;76.70;;;;;;5036050;28;20498;-84
2023/03/22 11:38:28;;;;;;;4.23;2.27;;;16.20;75.10;;;;;;5036695;28;20604;-83
2023/03/22 11:41:00;;;;;;;2.03;1.60;;;16.10;74.30;;;;;;5038244;28;20472;-85
2023/03/22 11:43:38;;;;;;;1.63;1.10;;;15.80;75.10;;;;;;5038726;28;20475;-84
2023/03/22 11:46:07;;;;;;;2.10;1.23;;;16.00;74.70;;;;;;5035834;28;20478;-84
2023/03/22 11:48:34;;;;;;;3.93;1.53;;;16.00;74.80;;;;;;5035653;28;20447;-83
2023/03/22 11:51:13;;;;;;;3.07;1.00;;;15.70;75.40;;;;;;5037487;28;20603;-85
2023/03/22 11:53:43;;;;;;;3.13;1.30;;;15.70;75.10;;;;;;5037629;28;20468;-84
2023/03/22 11:56:14;;;;;;;1.67;1.00;;;15.70;74.80;;;;;;5037910;28;20471;-84
2023/03/22 11:58:42;;;;;;;1.30;1.00;;;15.70;75.40;;;;;;5013548;28;20885;-84
2023/03/22 12:01:15;;;;;;;1.10;1.00;;;15.60;76.10;;;;;;5029064;28;20481;-83
2023/03/22 12:03:54;;;;;;;2.50;1.10;;;15.80;76.10;;;;;;5035843;28;21352;-84
2023/03/22 12:06:28;;;;;;;2.73;1.30;;;15.90;76.30;;;;;;5039467;28;21090;-84
2023/03/22 12:09:11;;;;;;;1.50;1.00;;;16.00;74.80;;;;;;5039356;28;20507;-84
2023/03/22 12:11:45;;;;;;;2.43;1.27;;;15.80;74.80;;;;;;5038397;28;20490;-85
2023/03/22 12:14:24;;;;;;;1.80;1.30;;;15.70;75.40;;;;;;5036777;28;20506;-83
2023/03/22 12:17:19;;;;;;;2.77;1.03;;;15.40;76.10;;;;;;5039090;28;20456;-85
2023/03/22 12:20:05;;;;;;;3.90;1.60;;;15.30;77.00;;;;;;5035347;28;20487;-83
2023/03/22 12:22:40;;;;;;;2.03;1.00;;;15.40;77.10;;;;;;5040778;28;20506;-81
2023/03/22 12:25:29;;;;;;;2.97;2.23;;;15.30;77.10;;;;;;5052127;28;20448;-83
2023/03/22 12:28:06;;;;;;;3.20;1.13;;;15.30;77.60;;;;;;5029339;28;20525;-83
2023/03/22 12:30:39;;;;;;;2.93;1.20;;;15.40;77.30;;;;;;5035335;28;20480;-85
2023/03/22 12:33:23;;;;;;;1.30;0.87;;;15.50;77.40;;;;;;5037302;28;20444;-83
2023/03/22 12:35:55;;;;;;;5.63;1.30;;;15.40;77.30;;;;;;5038116;28;20461;-83
2023/03/22 12:38:38;;;;;;;3.27;1.17;;;15.40;77.80;;;;;;5035033;28;20495;-84
2023/03/22 12:41:09;;;;;;;3.80;1.53;;;15.40;78.10;;;;;;5035236;28;20488;-82
2023/03/22 12:44:00;;;;;;;2.73;1.20;;;15.40;78.40;;;;;;5038285;28;20459;-84
2023/03/22 12:46:47;;;;;;;2.93;1.30;;;15.50;78.50;;;;;;5036842;28;20480;-85
2023/03/22 12:49:43;;;;;;;1.13;1.03;;;15.50;78.10;;;;;;5036516;28;20448;-83
2023/03/22 12:52:35;;;;;;;2.13;1.27;;;15.30;78.50;;;;;;5037710;28;20452;-84
2023/03/22 12:55:35;;;;;;;1.63;1.10;;;15.10;79.90;;;;;;5038481;28;21747;-83
2023/03/22 12:58:05;;;;;;;1.50;1.20;;;15.10;80.00;;;;;;5032871;28;20500;-82
2023/03/22 13:00:51;;;;;;;1.77;1.03;;;15.10;79.90;;;;;;5046616;28;20476;-83
2023/03/22 13:03:42;;;;;;;1.60;1.10;;;15.10;80.50;;;;;;5037899;28;20456;-84
2023/03/22 13:06:36;;;;;;;2.63;1.33;;;15.20;80.10;;;;;;5066115;28;20452;-83
2023/03/22 13:09:36;;;;;;;7.00;1.20;;;15.20;80.10;;;;;;5040660;28;20887;-82
2023/03/22 13:12:15;;;;;;;3.50;1.33;;;15.10;81.10;;;;;;5038495;28;20552;-83